< Typhoon 195310 1953 Season Typhoon 195312 >
Typhoon 195311 (NO-NAME)
General InformationTrack Information on Google Maps || Disaster Info.ResourceGoogle EarthGE AnimationAtom FeedGeoJSON
Detalied Best Track (Time Zone = UTC)
Year Month Day Hour Lat. Long. Pressure (hPa) Wind (kt) Class Image Chart
1953 8 23 06 13.6 148.0 1005 0 2 -- Chart
1953 8 23 12 14.0 147.0 1008 0 2 -- Chart
1953 8 23 18 13.6 145.2 1006 0 2 -- Chart
1953 8 24 00 12.9 143.3 1006 0 2 -- Chart
1953 8 24 06 13.0 142.7 1006 0 2 -- Chart
1953 8 24 12 13.1 142.3 1006 0 2 -- Chart
1953 8 24 18 13.2 142.0 1006 0 2 -- Chart
1953 8 25 00 13.2 141.7 1004 0 2 -- Chart
1953 8 25 06 13.2 141.4 1002 0 2 -- Chart
1953 8 25 12 13.2 141.0 1002 0 2 -- Chart
1953 8 25 18 13.1 140.0 1000 0 2 -- Chart
1953 8 26 00 12.7 139.1 995 0 9 -- Chart
1953 8 26 06 12.6 138.4 995 0 9 -- Chart
1953 8 26 12 12.6 137.6 995 0 9 -- Chart
1953 8 26 18 12.5 136.8 995 0 9 -- Chart
1953 8 27 00 12.5 136.1 995 0 9 -- Chart
1953 8 27 06 12.4 135.5 1000 0 9 -- Chart
1953 8 27 12 12.4 134.8 1000 0 2 -- Chart
1953 8 27 18 12.4 134.3 998 0 2 -- Chart
1953 8 28 00 12.4 133.7 996 0 9 -- Chart
1953 8 28 06 12.5 132.9 996 0 9 -- Chart
1953 8 28 12 12.6 132.2 995 0 9 -- Chart
1953 8 28 18 12.8 131.5 995 0 9 -- Chart
1953 8 29 00 13.0 131.0 995 0 9 -- Chart
1953 8 29 06 13.7 130.3 995 0 9 -- Chart
Japan Meteorological Agency Best Track Data | Correction Date : 1989-06-01
< Typhoon 195310 1953 Season Typhoon 195312 >

Help